sensor_id;sensor_type;location;lat;lon;timestamp;pressure;altitude;pressure_sealevel;temperature;humidity
74633;BME280;63139;52.018;8.552;2023-04-24T00:01:17;99004.56;;;10.04;76.83
74633;BME280;63139;52.018;8.552;2023-04-24T00:03:47;99006.38;;;9.97;76.68
74633;BME280;63139;52.018;8.552;2023-04-24T00:06:15;98998.44;;;9.90;77.22
74633;BME280;63139;52.018;8.552;2023-04-24T00:08:43;98992.53;;;9.88;76.62
74633;BME280;63139;52.018;8.552;2023-04-24T00:11:13;99000.44;;;9.82;77.12
74633;BME280;63139;52.018;8.552;2023-04-24T00:13:41;98992.50;;;9.75;77.14
74633;BME280;63139;52.018;8.552;2023-04-24T00:16:12;98992.88;;;9.72;77.27
74633;BME280;63139;52.018;8.552;2023-04-24T00:18:39;98988.84;;;9.69;77.47
74633;BME280;63139;52.018;8.552;2023-04-24T00:21:09;98994.09;;;9.63;77.79
74633;BME280;63139;52.018;8.552;2023-04-24T00:23:37;98991.03;;;9.59;77.64
74633;BME280;63139;52.018;8.552;2023-04-24T00:26:04;98994.28;;;9.55;77.77
74633;BME280;63139;52.018;8.552;2023-04-24T00:28:32;98995.47;;;9.52;78.29
74633;BME280;63139;52.018;8.552;2023-04-24T00:31:00;98998.91;;;9.46;78.08
74633;BME280;63139;52.018;8.552;2023-04-24T00:33:28;98995.25;;;9.41;78.34
74633;BME280;63139;52.018;8.552;2023-04-24T00:35:55;98995.63;;;9.38;79.19
74633;BME280;63139;52.018;8.552;2023-04-24T00:38:25;98999.28;;;9.37;79.11
74633;BME280;63139;52.018;8.552;2023-04-24T00:40:52;98995.25;;;9.41;79.59
74633;BME280;63139;52.018;8.552;2023-04-24T00:43:21;98996.03;;;9.41;79.36
74633;BME280;63139;52.018;8.552;2023-04-24T00:45:49;98995.81;;;9.36;79.68
74633;BME280;63139;52.018;8.552;2023-04-24T00:48:17;98987.88;;;9.36;78.42
74633;BME280;63139;52.018;8.552;2023-04-24T00:50:45;98988.09;;;9.41;78.31
74633;BME280;63139;52.018;8.552;2023-04-24T00:53:13;98986.31;;;9.48;78.03
74633;BME280;63139;52.018;8.552;2023-04-24T00:55:42;98987.94;;;9.49;77.89
74633;BME280;63139;52.018;8.552;2023-04-24T00:58:10;98986.94;;;9.50;77.47
74633;BME280;63139;52.018;8.552;2023-04-24T01:00:38;98988.97;;;9.48;77.77
74633;BME280;63139;52.018;8.552;2023-04-24T01:03:07;98984.47;;;9.49;77.87
74633;BME280;63139;52.018;8.552;2023-04-24T01:05:35;98981.88;;;9.55;77.95
74633;BME280;63139;52.018;8.552;2023-04-24T01:08:03;98982.28;;;9.59;78.42
74633;BME280;63139;52.018;8.552;2023-04-24T01:10:33;98968.06;;;9.66;78.16
74633;BME280;63139;52.018;8.552;2023-04-24T01:13:03;98967.28;;;9.72;78.17
74633;BME280;63139;52.018;8.552;2023-04-24T01:15:31;98965.06;;;9.76;77.92
74633;BME280;63139;52.018;8.552;2023-04-24T01:17:59;98966.06;;;9.75;77.96
74633;BME280;63139;52.018;8.552;2023-04-24T01:20:27;98962.81;;;9.73;77.58
74633;BME280;63139;52.018;8.552;2023-04-24T01:22:57;98972.38;;;9.74;78.10
74633;BME280;63139;52.018;8.552;2023-04-24T01:25:27;98975.00;;;9.74;77.96
74633;BME280;63139;52.018;8.552;2023-04-24T01:27:56;98971.16;;;9.70;78.20
74633;BME280;63139;52.018;8.552;2023-04-24T01:30:24;98970.94;;;9.71;78.50
74633;BME280;63139;52.018;8.552;2023-04-24T01:32:52;98966.47;;;9.79;78.93
74633;BME280;63139;52.018;8.552;2023-04-24T01:35:21;98971.16;;;9.83;79.07
74633;BME280;63139;52.018;8.552;2023-04-24T01:37:49;98975.03;;;9.87;78.92
74633;BME280;63139;52.018;8.552;2023-04-24T01:40:18;98958.97;;;9.89;78.72
74633;BME280;63139;52.018;8.552;2023-04-24T01:42:46;98962.44;;;9.89;78.59
74633;BME280;63139;52.018;8.552;2023-04-24T01:45:14;98962.22;;;9.84;78.68
74633;BME280;63139;52.018;8.552;2023-04-24T01:47:42;98968.28;;;9.78;78.76
74633;BME280;63139;52.018;8.552;2023-04-24T01:50:10;98960.59;;;9.70;79.05
74633;BME280;63139;52.018;8.552;2023-04-24T01:52:38;98960.75;;;9.62;79.30
74633;BME280;63139;52.018;8.552;2023-04-24T01:55:07;98959.94;;;9.55;79.36
74633;BME280;63139;52.018;8.552;2023-04-24T01:57:36;98966.81;;;9.49;79.85
74633;BME280;63139;52.018;8.552;2023-04-24T02:00:05;98963.31;;;9.42;79.71
74633;BME280;63139;52.018;8.552;2023-04-24T02:02:39;98971.03;;;9.37;79.71
74633;BME280;63139;52.018;8.552;2023-04-24T02:05:11;98960.63;;;9.29;79.67
74633;BME280;63139;52.018;8.552;2023-04-24T02:07:38;98957.78;;;9.24;80.00
74633;BME280;63139;52.018;8.552;2023-04-24T02:10:09;98970.75;;;9.19;80.09
74633;BME280;63139;52.018;8.552;2023-04-24T02:12:42;98967.88;;;9.14;79.85
74633;BME280;63139;52.018;8.552;2023-04-24T02:15:10;98973.56;;;9.11;80.16
74633;BME280;63139;52.018;8.552;2023-04-24T02:17:38;98965.41;;;9.06;80.27
74633;BME280;63139;52.018;8.552;2023-04-24T02:20:07;98965.00;;;9.02;80.16
74633;BME280;63139;52.018;8.552;2023-04-24T02:22:35;98963.16;;;8.96;80.08
74633;BME280;63139;52.018;8.552;2023-04-24T02:25:03;98968.19;;;8.91;80.53
74633;BME280;63139;52.018;8.552;2023-04-24T02:27:31;98968.13;;;8.84;80.24
74633;BME280;63139;52.018;8.552;2023-04-24T02:30:00;98976.03;;;8.78;81.22
74633;BME280;63139;52.018;8.552;2023-04-24T02:32:29;98979.03;;;8.75;81.26
74633;BME280;63139;52.018;8.552;2023-04-24T02:34:57;98975.59;;;8.74;81.20
74633;BME280;63139;52.018;8.552;2023-04-24T02:37:25;98978.81;;;8.70;81.03
74633;BME280;63139;52.018;8.552;2023-04-24T02:39:53;98979.00;;;8.68;81.19
74633;BME280;63139;52.018;8.552;2023-04-24T02:42:21;98975.31;;;8.63;81.61
74633;BME280;63139;52.018;8.552;2023-04-24T02:44:50;98973.03;;;8.60;81.30
74633;BME280;63139;52.018;8.552;2023-04-24T02:47:19;98974.44;;;8.55;81.97
74633;BME280;63139;52.018;8.552;2023-04-24T02:49:48;98981.53;;;8.55;81.97
74633;BME280;63139;52.018;8.552;2023-04-24T02:52:16;98975.03;;;8.51;81.62
74633;BME280;63139;52.018;8.552;2023-04-24T02:54:44;98970.31;;;8.46;81.85
74633;BME280;63139;52.018;8.552;2023-04-24T02:57:12;98976.00;;;8.43;82.00
74633;BME280;63139;52.018;8.552;2023-04-24T02:59:41;98979.00;;;8.40;82.39
74633;BME280;63139;52.018;8.552;2023-04-24T03:02:09;98981.66;;;8.40;82.74
74633;BME280;63139;52.018;8.552;2023-04-24T03:04:39;98974.38;;;8.42;82.96
74633;BME280;63139;52.018;8.552;2023-04-24T03:07:09;98974.78;;;8.46;83.07
74633;BME280;63139;52.018;8.552;2023-04-24T03:09:37;98978.91;;;8.55;82.89
74633;BME280;63139;52.018;8.552;2023-04-24T03:12:05;98976.56;;;8.67;82.85
74633;BME280;63139;52.018;8.552;2023-04-24T03:14:32;98970.38;;;8.81;82.86
74633;BME280;63139;52.018;8.552;2023-04-24T03:17:01;98976.94;;;8.98;82.73
74633;BME280;63139;52.018;8.552;2023-04-24T03:19:28;98976.81;;;9.13;82.24
74633;BME280;63139;52.018;8.552;2023-04-24T03:22:03;98975.66;;;9.28;81.85
74633;BME280;63139;52.018;8.552;2023-04-24T03:24:32;98980.81;;;9.43;81.25
74633;BME280;63139;52.018;8.552;2023-04-24T03:27:00;98980.25;;;9.54;80.81
74633;BME280;63139;52.018;8.552;2023-04-24T03:29:54;98972.16;;;9.69;80.09
74633;BME280;63139;52.018;8.552;2023-04-24T03:32:33;98972.38;;;9.81;79.55
74633;BME280;63139;52.018;8.552;2023-04-24T03:35:02;98978.28;;;9.89;79.31
74633;BME280;63139;52.018;8.552;2023-04-24T03:37:32;98973.63;;;9.98;79.21
74633;BME280;63139;52.018;8.552;2023-04-24T03:40:37;98975.66;;;10.09;78.88
74633;BME280;63139;52.018;8.552;2023-04-24T03:43:16;98970.38;;;10.16;78.92
74633;BME280;63139;52.018;8.552;2023-04-24T03:45:44;98977.56;;;10.22;78.63
74633;BME280;63139;52.018;8.552;2023-04-24T03:48:13;98974.50;;;10.25;78.53
74633;BME280;63139;52.018;8.552;2023-04-24T03:50:41;98971.44;;;10.28;77.74
74633;BME280;63139;52.018;8.552;2023-04-24T03:53:12;98958.84;;;10.30;77.50
74633;BME280;63139;52.018;8.552;2023-04-24T03:55:40;98961.06;;;10.33;77.12
74633;BME280;63139;52.018;8.552;2023-04-24T03:58:09;98964.13;;;10.30;77.06
74633;BME280;63139;52.018;8.552;2023-04-24T04:00:37;98963.91;;;10.25;76.70
74633;BME280;63139;52.018;8.552;2023-04-24T04:03:42;98968.19;;;10.19;76.85
74633;BME280;63139;52.018;8.552;2023-04-24T04:06:10;98973.03;;;10.16;76.87
74633;BME280;63139;52.018;8.552;2023-04-24T04:08:41;98970.81;;;10.12;76.79
74633;BME280;63139;52.018;8.552;2023-04-24T04:11:09;98974.25;;;10.06;76.76
74633;BME280;63139;52.018;8.552;2023-04-24T04:13:36;98978.72;;;9.99;77.14
74633;BME280;63139;52.018;8.552;2023-04-24T04:16:05;98984.59;;;9.95;77.00
74633;BME280;63139;52.018;8.552;2023-04-24T04:18:33;98978.50;;;9.94;76.91
74633;BME280;63139;52.018;8.552;2023-04-24T04:21:01;98974.84;;;9.95;76.90
74633;BME280;63139;52.018;8.552;2023-04-24T04:23:29;98977.91;;;9.99;76.64
74633;BME280;63139;52.018;8.552;2023-04-24T04:26:08;98982.38;;;10.05;76.58
74633;BME280;63139;52.018;8.552;2023-04-24T04:28:49;98978.13;;;10.10;76.26
74633;BME280;63139;52.018;8.552;2023-04-24T04:31:17;98968.19;;;10.19;76.08
74633;BME280;63139;52.018;8.552;2023-04-24T04:33:45;98971.66;;;10.26;75.95
74633;BME280;63139;52.018;8.552;2023-04-24T04:36:13;98966.34;;;10.33;76.04
74633;BME280;63139;52.018;8.552;2023-04-24T04:38:44;98974.28;;;10.39;75.60
74633;BME280;63139;52.018;8.552;2023-04-24T04:41:25;98983.66;;;10.48;75.18
74633;BME280;63139;52.018;8.552;2023-04-24T04:43:53;98982.44;;;10.58;74.66
74633;BME280;63139;52.018;8.552;2023-04-24T04:46:21;98984.06;;;10.65;74.21
74633;BME280;63139;52.018;8.552;2023-04-24T04:49:02;98985.25;;;10.69;73.50
74633;BME280;63139;52.018;8.552;2023-04-24T04:51:29;98987.50;;;10.72;73.45
74633;BME280;63139;52.018;8.552;2023-04-24T04:53:58;99003.19;;;10.74;72.96
74633;BME280;63139;52.018;8.552;2023-04-24T04:56:27;99007.69;;;10.67;71.75
74633;BME280;63139;52.018;8.552;2023-04-24T04:58:58;99013.34;;;10.70;71.70
74633;BME280;63139;52.018;8.552;2023-04-24T05:01:26;99017.63;;;10.71;71.50
74633;BME280;63139;52.018;8.552;2023-04-24T05:03:55;99016.19;;;10.75;71.68
74633;BME280;63139;52.018;8.552;2023-04-24T05:06:23;99026.19;;;10.80;71.37
74633;BME280;63139;52.018;8.552;2023-04-24T05:08:51;99027.00;;;10.80;70.83
74633;BME280;63139;52.018;8.552;2023-04-24T05:11:40;99019.88;;;10.61;70.88
74633;BME280;63139;52.018;8.552;2023-04-24T05:14:08;99029.25;;;10.57;71.14
74633;BME280;63139;52.018;8.552;2023-04-24T05:16:37;99020.69;;;10.62;71.89
74633;BME280;63139;52.018;8.552;2023-04-24T05:19:07;99023.34;;;10.62;71.41
74633;BME280;63139;52.018;8.552;2023-04-24T05:21:40;99019.03;;;10.67;71.73
74633;BME280;63139;52.018;8.552;2023-04-24T05:24:09;99015.78;;;10.78;71.34
74633;BME280;63139;52.018;8.552;2023-04-24T05:26:51;99014.16;;;10.84;71.11
74633;BME280;63139;52.018;8.552;2023-04-24T05:29:24;99015.59;;;10.86;70.70
74633;BME280;63139;52.018;8.552;2023-04-24T05:31:53;99021.06;;;10.85;70.82
74633;BME280;63139;52.018;8.552;2023-04-24T05:34:22;99018.63;;;10.90;70.77
74633;BME280;63139;52.018;8.552;2023-04-24T05:36:53;99016.38;;;11.00;71.08
74633;BME280;63139;52.018;8.552;2023-04-24T05:39:21;99024.28;;;11.07;70.28
74633;BME280;63139;52.018;8.552;2023-04-24T05:41:52;99024.28;;;11.13;70.40
74633;BME280;63139;52.018;8.552;2023-04-24T05:44:21;99024.88;;;11.22;70.23
74633;BME280;63139;52.018;8.552;2023-04-24T05:46:49;99029.56;;;11.20;70.40
74633;BME280;63139;52.018;8.552;2023-04-24T05:49:17;99036.09;;;11.24;70.57
74633;BME280;63139;52.018;8.552;2023-04-24T05:51:45;99029.75;;;11.25;70.44
74633;BME280;63139;52.018;8.552;2023-04-24T05:54:13;99030.16;;;11.28;70.17
74633;BME280;63139;52.018;8.552;2023-04-24T05:56:41;99026.47;;;11.29;70.61
74633;BME280;63139;52.018;8.552;2023-04-24T05:59:14;99029.31;;;11.35;70.15
74633;BME280;63139;52.018;8.552;2023-04-24T06:01:42;99030.91;;;11.42;70.08
74633;BME280;63139;52.018;8.552;2023-04-24T06:04:14;99032.72;;;11.55;69.74
74633;BME280;63139;52.018;8.552;2023-04-24T06:06:42;99030.88;;;11.55;69.50
74633;BME280;63139;52.018;8.552;2023-04-24T06:09:10;99025.75;;;11.60;69.34
74633;BME280;63139;52.018;8.552;2023-04-24T06:11:38;99027.81;;;11.58;69.58
74633;BME280;63139;52.018;8.552;2023-04-24T06:14:09;99024.78;;;11.55;69.74
74633;BME280;63139;52.018;8.552;2023-04-24T06:16:39;99032.94;;;11.53;69.47
74633;BME280;63139;52.018;8.552;2023-04-24T06:19:17;99029.84;;;11.56;69.59
74633;BME280;63139;52.018;8.552;2023-04-24T06:21:46;99029.59;;;11.64;69.09
74633;BME280;63139;52.018;8.552;2023-04-24T06:24:14;99040.00;;;11.66;69.13
74633;BME280;63139;52.018;8.552;2023-04-24T06:26:42;99046.13;;;11.66;69.02
74633;BME280;63139;52.018;8.552;2023-04-24T06:29:10;99046.13;;;11.66;68.79
74633;BME280;63139;52.018;8.552;2023-04-24T06:31:39;99037.97;;;11.68;68.61
74633;BME280;63139;52.018;8.552;2023-04-24T06:34:07;99039.41;;;11.71;68.59
74633;BME280;63139;52.018;8.552;2023-04-24T06:36:35;99045.91;;;11.68;68.01
74633;BME280;63139;52.018;8.552;2023-04-24T06:39:03;99040.41;;;11.70;68.87
74633;BME280;63139;52.018;8.552;2023-04-24T06:41:31;99048.94;;;11.72;68.43
74633;BME280;63139;52.018;8.552;2023-04-24T06:43:58;99050.00;;;11.64;68.40
74633;BME280;63139;52.018;8.552;2023-04-24T06:46:27;99046.75;;;11.62;68.60
74633;BME280;63139;52.018;8.552;2023-04-24T06:48:56;99044.69;;;11.64;68.39
74633;BME280;63139;52.018;8.552;2023-04-24T06:51:24;99043.88;;;11.63;68.76
74633;BME280;63139;52.018;8.552;2023-04-24T06:53:53;99047.34;;;11.64;68.63
74633;BME280;63139;52.018;8.552;2023-04-24T06:56:22;99053.28;;;11.59;68.04
74633;BME280;63139;52.018;8.552;2023-04-24T06:58:50;99048.56;;;11.68;68.36
74633;BME280;63139;52.018;8.552;2023-04-24T07:01:18;99042.25;;;11.76;67.60
74633;BME280;63139;52.018;8.552;2023-04-24T07:03:46;99050.19;;;11.76;67.30
74633;BME280;63139;52.018;8.552;2023-04-24T07:06:15;99046.94;;;11.67;67.72
74633;BME280;63139;52.018;8.552;2023-04-24T07:08:45;99046.09;;;11.80;67.67
74633;BME280;63139;52.018;8.552;2023-04-24T07:11:13;99045.50;;;11.78;67.29
74633;BME280;63139;52.018;8.552;2023-04-24T07:13:40;99051.84;;;11.70;67.25
74633;BME280;63139;52.018;8.552;2023-04-24T07:16:09;99038.34;;;11.72;67.47
74633;BME280;63139;52.018;8.552;2023-04-24T07:18:38;99042.84;;;11.78;66.98
74633;BME280;63139;52.018;8.552;2023-04-24T07:21:06;99047.72;;;11.81;66.41
74633;BME280;63139;52.018;8.552;2023-04-24T07:23:35;99044.81;;;11.89;66.18
74633;BME280;63139;52.018;8.552;2023-04-24T07:26:03;99037.94;;;11.81;65.43
74633;BME280;63139;52.018;8.552;2023-04-24T07:28:31;99046.25;;;11.91;64.86
74633;BME280;63139;52.018;8.552;2023-04-24T07:30:59;99048.06;;;11.97;64.98
74633;BME280;63139;52.018;8.552;2023-04-24T07:33:27;99048.41;;;12.08;65.17
74633;BME280;63139;52.018;8.552;2023-04-24T07:35:55;99051.06;;;12.08;65.28
74633;BME280;63139;52.018;8.552;2023-04-24T07:38:22;99056.13;;;12.09;65.62
74633;BME280;63139;52.018;8.552;2023-04-24T07:40:53;99047.72;;;12.19;64.54
74633;BME280;63139;52.018;8.552;2023-04-24T07:43:22;99048.69;;;12.24;64.83
74633;BME280;63139;52.018;8.552;2023-04-24T07:45:50;99061.53;;;12.27;64.81
74633;BME280;63139;52.018;8.552;2023-04-24T07:48:18;99063.81;;;12.24;64.75
74633;BME280;63139;52.018;8.552;2023-04-24T07:50:47;99065.38;;;12.31;64.35
74633;BME280;63139;52.018;8.552;2023-04-24T07:53:16;99061.03;;;12.43;63.69
74633;BME280;63139;52.018;8.552;2023-04-24T07:55:43;99071.41;;;12.45;63.45
74633;BME280;63139;52.018;8.552;2023-04-24T07:58:13;99079.13;;;12.53;63.18
74633;BME280;63139;52.018;8.552;2023-04-24T08:00:41;99089.13;;;12.58;63.11
74633;BME280;63139;52.018;8.552;2023-04-24T08:03:09;99074.63;;;12.54;62.43
74633;BME280;63139;52.018;8.552;2023-04-24T08:05:37;99078.66;;;12.63;62.66
74633;BME280;63139;52.018;8.552;2023-04-24T08:08:06;99079.47;;;12.63;62.29
74633;BME280;63139;52.018;8.552;2023-04-24T08:10:34;99087.63;;;12.62;62.27
74633;BME280;63139;52.018;8.552;2023-04-24T08:13:02;99081.84;;;12.71;62.40
74633;BME280;63139;52.018;8.552;2023-04-24T08:15:31;99088.47;;;12.62;62.46
74633;BME280;63139;52.018;8.552;2023-04-24T08:17:59;99088.09;;;12.59;62.77
74633;BME280;63139;52.018;8.552;2023-04-24T08:20:26;99088.81;;;12.41;62.50
74633;BME280;63139;52.018;8.552;2023-04-24T08:22:54;99095.41;;;12.32;62.80
74633;BME280;63139;52.018;8.552;2023-04-24T08:25:23;99089.31;;;12.25;63.09
74633;BME280;63139;52.018;8.552;2023-04-24T08:27:51;99088.19;;;12.39;62.61
74633;BME280;63139;52.018;8.552;2023-04-24T08:30:19;99092.63;;;12.52;62.27
74633;BME280;63139;52.018;8.552;2023-04-24T08:32:48;99093.09;;;13.41;60.56
74633;BME280;63139;52.018;8.552;2023-04-24T08:35:16;99088.44;;;14.21;57.91
74633;BME280;63139;52.018;8.552;2023-04-24T08:37:44;99098.44;;;14.67;57.41
74633;BME280;63139;52.018;8.552;2023-04-24T08:40:13;99085.75;;;14.93;57.34
74633;BME280;63139;52.018;8.552;2023-04-24T08:42:42;99084.81;;;15.22;56.92
74633;BME280;63139;52.018;8.552;2023-04-24T08:45:11;99094.19;;;15.36;55.37
74633;BME280;63139;52.018;8.552;2023-04-24T08:47:40;99092.34;;;15.60;53.44
74633;BME280;63139;52.018;8.552;2023-04-24T08:50:10;99087.25;;;15.70;54.07
74633;BME280;63139;52.018;8.552;2023-04-24T08:52:39;99091.78;;;15.58;53.40
74633;BME280;63139;52.018;8.552;2023-04-24T08:55:07;99090.53;;;15.26;54.54
74633;BME280;63139;52.018;8.552;2023-04-24T08:57:35;99096.31;;;15.11;55.98
74633;BME280;63139;52.018;8.552;2023-04-24T09:00:07;99102.66;;;14.87;56.06
74633;BME280;63139;52.018;8.552;2023-04-24T09:02:41;99100.06;;;14.68;56.06
74633;BME280;63139;52.018;8.552;2023-04-24T09:05:12;99098.66;;;14.54;56.22
74633;BME280;63139;52.018;8.552;2023-04-24T09:07:41;99115.31;;;14.50;56.79
74633;BME280;63139;52.018;8.552;2023-04-24T09:10:12;99110.38;;;14.35;57.20
74633;BME280;63139;52.018;8.552;2023-04-24T09:12:41;99103.09;;;14.12;56.50
74633;BME280;63139;52.018;8.552;2023-04-24T09:15:10;99103.72;;;13.96;57.80
74633;BME280;63139;52.018;8.552;2023-04-24T09:17:38;99112.16;;;13.75;57.44
74633;BME280;63139;52.018;8.552;2023-04-24T09:20:07;99104.69;;;13.65;57.05
74633;BME280;63139;52.018;8.552;2023-04-24T09:22:37;99102.25;;;13.64;57.58
74633;BME280;63139;52.018;8.552;2023-04-24T09:25:06;99097.66;;;13.89;57.06
74633;BME280;63139;52.018;8.552;2023-04-24T09:27:35;99108.00;;;14.15;56.76
74633;BME280;63139;52.018;8.552;2023-04-24T09:30:04;99121.16;;;14.10;56.92
74633;BME280;63139;52.018;8.552;2023-04-24T09:32:31;99112.47;;;13.85;57.61
74633;BME280;63139;52.018;8.552;2023-04-24T09:35:10;99111.94;;;13.58;57.28
74633;BME280;63139;52.018;8.552;2023-04-24T09:37:41;99119.66;;;13.41;58.08
74633;BME280;63139;52.018;8.552;2023-04-24T09:40:11;99115.56;;;13.45;58.10
74633;BME280;63139;52.018;8.552;2023-04-24T09:42:39;99112.97;;;13.57;57.22
74633;BME280;63139;52.018;8.552;2023-04-24T09:45:10;99111.88;;;13.65;56.93
74633;BME280;63139;52.018;8.552;2023-04-24T09:47:41;99109.28;;;13.76;57.81
74633;BME280;63139;52.018;8.552;2023-04-24T09:50:12;99113.13;;;13.98;56.76
74633;BME280;63139;52.018;8.552;2023-04-24T09:52:43;99111.88;;;13.83;57.33
74633;BME280;63139;52.018;8.552;2023-04-24T09:55:13;99109.25;;;13.94;56.97
74633;BME280;63139;52.018;8.552;2023-04-24T09:57:47;99115.03;;;13.91;56.87
74633;BME280;63139;52.018;8.552;2023-04-24T10:00:24;99118.97;;;13.71;56.77
74633;BME280;63139;52.018;8.552;2023-04-24T10:02:57;99122.50;;;13.46;57.71
74633;BME280;63139;52.018;8.552;2023-04-24T10:05:27;99115.38;;;13.22;58.56
74633;BME280;63139;52.018;8.552;2023-04-24T10:08:03;99133.22;;;13.15;58.44
74633;BME280;63139;52.018;8.552;2023-04-24T10:10:33;99131.03;;;13.05;59.88
74633;BME280;63139;52.018;8.552;2023-04-24T10:13:01;99123.06;;;13.30;59.45
74633;BME280;63139;52.018;8.552;2023-04-24T10:15:30;99127.34;;;13.31;58.90
74633;BME280;63139;52.018;8.552;2023-04-24T10:17:59;99129.94;;;12.88;59.31
74633;BME280;63139;52.018;8.552;2023-04-24T10:20:29;99126.47;;;12.88;59.90
74633;BME280;63139;52.018;8.552;2023-04-24T10:22:58;99133.06;;;13.53;58.11
74633;BME280;63139;52.018;8.552;2023-04-24T10:25:28;99142.00;;;13.58;57.68
74633;BME280;63139;52.018;8.552;2023-04-24T10:27:58;99149.41;;;13.75;58.52
74633;BME280;63139;52.018;8.552;2023-04-24T10:30:27;99159.47;;;13.91;58.25
74633;BME280;63139;52.018;8.552;2023-04-24T10:32:55;99163.34;;;14.25;57.84
74633;BME280;63139;52.018;8.552;2023-04-24T10:35:23;99168.50;;;14.56;57.45
74633;BME280;63139;52.018;8.552;2023-04-24T10:37:58;99177.69;;;14.72;57.84
74633;BME280;63139;52.018;8.552;2023-04-24T10:40:31;99174.09;;;14.66;57.65
74633;BME280;63139;52.018;8.552;2023-04-24T10:43:01;99167.03;;;14.24;58.33
74633;BME280;63139;52.018;8.552;2023-04-24T10:45:29;99181.28;;;13.99;59.07
74633;BME280;63139;52.018;8.552;2023-04-24T10:47:58;99181.94;;;13.77;59.55
74633;BME280;63139;52.018;8.552;2023-04-24T10:50:42;99189.13;;;13.51;59.79
74633;BME280;63139;52.018;8.552;2023-04-24T10:53:16;99199.50;;;13.35;60.26
74633;BME280;63139;52.018;8.552;2023-04-24T10:55:47;99195.56;;;13.12;61.25
74633;BME280;63139;52.018;8.552;2023-04-24T10:58:16;99210.03;;;13.23;60.94
74633;BME280;63139;52.018;8.552;2023-04-24T11:00:55;99212.47;;;13.25;61.57
74633;BME280;63139;52.018;8.552;2023-04-24T11:03:26;99206.81;;;13.14;61.79
74633;BME280;63139;52.018;8.552;2023-04-24T11:05:59;99211.41;;;13.01;63.00
74633;BME280;63139;52.018;8.552;2023-04-24T11:08:29;99211.94;;;12.78;65.17
74633;BME280;63139;52.018;8.552;2023-04-24T11:11:03;99221.06;;;12.57;65.09
74633;BME280;63139;52.018;8.552;2023-04-24T11:14:03;99211.66;;;12.55;67.39
74633;BME280;63139;52.018;8.552;2023-04-24T11:16:33;99222.72;;;12.45;66.06
74633;BME280;63139;52.018;8.552;2023-04-24T11:19:05;99235.88;;;12.27;66.65
74633;BME280;63139;52.018;8.552;2023-04-24T11:21:41;99232.47;;;12.07;68.85
74633;BME280;63139;52.018;8.552;2023-04-24T11:24:26;99246.81;;;11.92;70.49
74633;BME280;63139;52.018;8.552;2023-04-24T11:26:57;99238.97;;;12.17;68.32
74633;BME280;63139;52.018;8.552;2023-04-24T11:29:39;99236.53;;;12.67;68.14
74633;BME280;63139;52.018;8.552;2023-04-24T11:32:25;99246.69;;;13.14;67.41
74633;BME280;63139;52.018;8.552;2023-04-24T11:34:54;99244.09;;;13.01;66.11
74633;BME280;63139;52.018;8.552;2023-04-24T11:37:23;99248.53;;;12.76;66.02
74633;BME280;63139;52.018;8.552;2023-04-24T11:39:53;99273.91;;;12.65;66.65
74633;BME280;63139;52.018;8.552;2023-04-24T11:42:23;99277.03;;;12.56;65.79
74633;BME280;63139;52.018;8.552;2023-04-24T11:44:53;99275.38;;;12.55;66.57
74633;BME280;63139;52.018;8.552;2023-04-24T11:47:28;99283.59;;;12.47;66.05
74633;BME280;63139;52.018;8.552;2023-04-24T11:49:56;99283.25;;;12.30;67.32
74633;BME280;63139;52.018;8.552;2023-04-24T11:52:25;99301.66;;;12.05;67.68
74633;BME280;63139;52.018;8.552;2023-04-24T11:54:53;99299.81;;;12.05;67.81
74633;BME280;63139;52.018;8.552;2023-04-24T11:57:23;99312.91;;;12.07;67.77
74633;BME280;63139;52.018;8.552;2023-04-24T11:59:54;99313.28;;;12.11;67.94
74633;BME280;63139;52.018;8.552;2023-04-24T12:02:23;99317.38;;;12.07;68.68
74633;BME280;63139;52.018;8.552;2023-04-24T12:04:52;99321.91;;;11.93;69.06
74633;BME280;63139;52.018;8.552;2023-04-24T12:07:21;99322.91;;;11.85;69.82
74633;BME280;63139;52.018;8.552;2023-04-24T12:09:54;99324.69;;;11.72;70.80
74633;BME280;63139;52.018;8.552;2023-04-24T12:12:25;99335.09;;;11.60;71.53
74633;BME280;63139;52.018;8.552;2023-04-24T12:14:54;99335.50;;;11.50;71.79
74633;BME280;63139;52.018;8.552;2023-04-24T12:17:24;99333.03;;;11.36;72.71
74633;BME280;63139;52.018;8.552;2023-04-24T12:19:57;99350.72;;;11.09;72.41
74633;BME280;63139;52.018;8.552;2023-04-24T12:22:25;99359.19;;;10.91;73.08
74633;BME280;63139;52.018;8.552;2023-04-24T12:25:00;99364.47;;;10.84;73.12
74633;BME280;63139;52.018;8.552;2023-04-24T12:27:32;99367.53;;;10.81;73.43
74633;BME280;63139;52.018;8.552;2023-04-24T12:30:02;99380.31;;;10.78;73.67
74633;BME280;63139;52.018;8.552;2023-04-24T12:32:31;99372.97;;;10.73;73.64
74633;BME280;63139;52.018;8.552;2023-04-24T12:34:59;99384.41;;;10.80;73.33
74633;BME280;63139;52.018;8.552;2023-04-24T12:37:32;99391.16;;;10.89;73.38
74633;BME280;63139;52.018;8.552;2023-04-24T12:40:03;99388.56;;;10.96;73.46
74633;BME280;63139;52.018;8.552;2023-04-24T12:42:35;99399.00;;;11.11;73.08
74633;BME280;63139;52.018;8.552;2023-04-24T12:45:04;99400.03;;;11.16;72.97
74633;BME280;63139;52.018;8.552;2023-04-24T12:47:33;99398.69;;;11.34;72.76
74633;BME280;63139;52.018;8.552;2023-04-24T12:50:02;99401.47;;;11.19;73.88
74633;BME280;63139;52.018;8.552;2023-04-24T12:52:30;99405.38;;;11.23;73.82
74633;BME280;63139;52.018;8.552;2023-04-24T12:54:59;99411.53;;;11.37;73.37
74633;BME280;63139;52.018;8.552;2023-04-24T12:57:28;99414.59;;;11.34;73.70
74633;BME280;63139;52.018;8.552;2023-04-24T12:59:58;99415.16;;;11.29;74.09
74633;BME280;63139;52.018;8.552;2023-04-24T13:02:28;99417.16;;;11.14;74.81
74633;BME280;63139;52.018;8.552;2023-04-24T13:04:58;99420.53;;;10.95;75.17
74633;BME280;63139;52.018;8.552;2023-04-24T13:07:26;99428.19;;;10.83;75.45
74633;BME280;63139;52.018;8.552;2023-04-24T13:09:55;99429.03;;;10.83;75.55
74633;BME280;63139;52.018;8.552;2023-04-24T13:12:23;99420.47;;;10.81;75.30
74633;BME280;63139;52.018;8.552;2023-04-24T13:14:52;99432.25;;;10.79;76.06
74633;BME280;63139;52.018;8.552;2023-04-24T13:17:21;99436.09;;;10.76;76.23